sim
Sign-in with your pilot id or email,
or register
Callsign
Passwort

Schedule Details

Flight Number: RYR1247 (2)
Departure: Bratislava M. R. Stefanik Airport (LZIB) at 13:00
Arrival: Athens Eleftherios Venizelos (LGAV) at 15:10
Route: Ryanair Passenger Schedule. Enter filed route here before submitting Pirep.

Weather Information
Getting current METAR information for LZIB 232100Z 05003KT CAVOK 13/10 Q1017
Getting current METAR information for LGAV 232120Z 36009KT CAVOK 19/08 Q1019 NOSIG

Schedule Frequency

Route Map